Time;durP1;ratioP1;P1;durP2;ratioP2;P2;SDS_P1;SDS_P2;PMS_P1;PMS_P2;Temp;Humidity;BMP_temperature;BMP_pressure;BME280_temperature;BME280_humidity;BME280_pressure;Samples;Min_cycle;Max_cycle;Signal;HPM_P1;HPM_P2
2022/11/23 00:01:32;;;;;;;24.38;2.72;;;;;;;21.12;63.99;98184.97;7317010;19;130599;-32
2022/11/23 00:04:01;;;;;;;37.85;4.00;;;;;;;21.11;64.22;98185.97;7318712;19;129058;-31
2022/11/23 00:06:26;;;;;;;31.95;3.50;;;;;;;21.12;64.59;98189.41;7318350;19;129844;-34
2022/11/23 00:08:53;;;;;;;27.92;3.20;;;;;;;21.14;64.40;98188.22;7318917;19;129477;-33
2022/11/23 00:11:20;;;;;;;22.75;2.88;;;;;;;21.10;64.03;98181.72;7316109;19;129355;-33
2022/11/23 00:13:45;;;;;;;26.92;3.20;;;;;;;21.13;64.94;98184.00;7317271;19;129053;-36
2022/11/23 00:16:25;;;;;;;33.83;3.40;;;;;;;21.14;65.40;98185.63;7316134;19;129164;-33
2022/11/23 00:18:56;;;;;;;35.65;3.88;;;;;;;21.15;65.26;98176.00;7317189;19;129266;-37
2022/11/23 00:21:23;;;;;;;26.10;2.97;;;;;;;21.07;64.61;98170.81;7316298;19;131016;-34
2022/11/23 00:23:49;;;;;;;42.03;4.22;;;;;;;21.16;65.21;98185.44;7317669;19;128911;-36
2022/11/23 00:26:16;;;;;;;27.95;3.10;;;;;;;21.12;64.14;98187.59;7317415;19;130338;-37
2022/11/23 00:28:42;;;;;;;23.23;2.90;;;;;;;21.04;64.05;98182.41;7318638;19;130584;-33
2022/11/23 00:31:09;;;;;;;23.00;2.97;;;;;;;21.02;64.25;98181.78;7316341;19;130200;-34
2022/11/23 00:33:35;;;;;;;32.05;3.58;;;;;;;20.99;64.02;98189.94;7316621;19;129023;-37
2022/11/23 00:36:06;;;;;;;33.93;3.77;;;;;;;21.04;63.34;98187.63;7315774;19;128972;-36
2022/11/23 00:38:31;;;;;;;21.80;2.65;;;;;;;21.15;63.21;98192.50;7318553;19;130758;-34
2022/11/23 00:41:02;;;;;;;32.58;3.60;;;;;;;21.17;63.18;98166.97;7317432;19;129303;-35
2022/11/23 00:43:28;;;;;;;39.75;4.28;;;;;;;21.37;62.38;98183.06;7316606;19;128864;-31
2022/11/23 00:46:04;;;;;;;38.87;3.87;;;;;;;21.47;61.96;98187.06;7313275;19;129383;-34
2022/11/23 00:48:30;;;;;;;44.28;4.13;;;;;;;21.53;61.36;98178.56;7314740;19;130295;-32
2022/11/23 00:50:55;;;;;;;25.98;3.10;;;;;;;21.75;61.22;98188.19;7316804;19;130054;-33
2022/11/23 00:53:20;;;;;;;31.50;3.40;;;;;;;21.83;60.70;98179.50;7317579;19;128968;-31
2022/11/23 00:55:54;;;;;;;30.40;3.15;;;;;;;21.86;60.74;98177.38;7316306;19;129795;-32
2022/11/23 00:58:20;;;;;;;33.95;3.78;;;;;;;22.11;59.84;98188.44;7316095;19;129604;-31
2022/11/23 01:00:45;;;;;;;20.80;2.60;;;;;;;22.14;60.12;98188.09;7315458;19;131833;-35
2022/11/23 01:03:11;;;;;;;22.63;2.85;;;;;;;22.07;59.77;98176.69;7316452;19;129047;-33
2022/11/23 01:05:36;;;;;;;34.17;3.60;;;;;;;22.10;59.65;98189.41;7315721;19;129615;-35
2022/11/23 01:08:02;;;;;;;27.02;3.53;;;;;;;22.08;59.69;98187.97;7314378;19;129420;-33
2022/11/23 01:10:31;;;;;;;22.10;2.53;;;;;;;22.04;59.93;98182.28;7316265;19;129777;-32
2022/11/23 01:12:57;;;;;;;33.58;3.67;;;;;;;21.98;60.74;98176.94;7315434;19;128896;-33
2022/11/23 01:15:22;;;;;;;32.72;3.45;;;;;;;21.90;60.29;98178.63;7315092;19;129505;-31
2022/11/23 01:17:48;;;;;;;37.42;3.80;;;;;;;21.82;61.12;98183.09;7314548;19;129460;-35
2022/11/23 01:20:14;;;;;;;29.40;3.35;;;;;;;21.76;60.62;98184.63;7315112;19;129377;-31
2022/11/23 01:22:39;;;;;;;30.08;3.33;;;;;;;21.69;61.29;98188.91;7312583;19;129979;-31
2022/11/23 01:25:05;;;;;;;38.03;3.83;;;;;;;21.55;61.81;98176.56;7314904;19;129128;-36
2022/11/23 01:27:30;;;;;;;38.07;3.97;;;;;;;21.55;62.00;98191.44;7312874;19;129474;-37
2022/11/23 01:29:55;;;;;;;28.92;3.25;;;;;;;21.53;62.16;98193.41;7314040;19;130060;-31
2022/11/23 01:32:21;;;;;;;25.77;3.20;;;;;;;21.47;62.17;98192.28;7313792;19;129336;-30
2022/11/23 01:34:46;;;;;;;24.20;3.07;;;;;;;21.38;61.93;98193.34;7314800;19;129216;-35
2022/11/23 01:37:11;;;;;;;25.23;3.05;;;;;;;21.31;62.23;98181.94;7315357;19;129045;-31
2022/11/23 01:39:37;;;;;;;34.40;3.78;;;;;;;21.15;63.05;98166.34;7315150;19;129404;-32
2022/11/23 01:42:05;;;;;;;20.13;2.50;;;;;;;21.23;62.69;98189.84;7314061;19;129177;-36
2022/11/23 01:44:33;;;;;;;26.98;3.17;;;;;;;21.18;62.91;98183.47;7314691;19;128788;-35
2022/11/23 01:47:03;;;;;;;22.13;2.95;;;;;;;21.12;63.17;98184.97;7312886;19;131763;-31
2022/11/23 01:49:41;;;;;;;19.92;2.40;;;;;;;21.08;63.07;98178.47;7315227;19;131236;-36
2022/11/23 01:52:11;;;;;;;18.77;2.53;;;;;;;21.02;63.78;98179.16;7313635;19;129447;-31
2022/11/23 01:54:57;;;;;;;28.45;3.15;;;;;;;21.01;64.06;98187.97;7313779;19;129062;-36
2022/11/23 01:57:28;;;;;;;20.35;2.47;;;;;;;20.96;63.51;98184.22;7314543;19;129595;-36
2022/11/23 01:59:55;;;;;;;23.30;3.20;;;;;;;20.96;63.67;98185.00;7315067;19;131688;-35
2022/11/23 02:02:20;;;;;;;21.52;2.60;;;;;;;20.91;64.13;98187.31;7312863;19;129533;-30
2022/11/23 02:04:50;;;;;;;27.75;3.53;;;;;;;20.94;64.25;98181.75;7314787;19;129331;-34
2022/11/23 02:07:18;;;;;;;30.92;3.13;;;;;;;20.98;64.23;98180.47;7311871;19;129239;-38
2022/11/23 02:09:45;;;;;;;26.88;3.25;;;;;;;21.04;63.77;98182.41;7313890;19;129670;-36
2022/11/23 02:12:11;;;;;;;22.50;2.85;;;;;;;21.11;63.49;98182.53;7313507;19;129194;-30
2022/11/23 02:14:37;;;;;;;43.10;4.20;;;;;;;21.20;63.44;98182.34;7314239;19;128855;-31
2022/11/23 02:17:03;;;;;;;20.20;2.60;;;;;;;21.33;63.18;98190.44;7313959;19;129122;-34
2022/11/23 02:19:53;;;;;;;44.25;4.55;;;;;;;21.39;62.20;98194.97;7315142;19;130410;-33
2022/11/23 02:22:59;;;;;;;35.83;3.72;;;;;;;21.49;61.83;98192.94;7313143;19;129550;-33
2022/11/23 02:25:43;;;;;;;33.40;3.88;;;;;;;21.65;61.30;98199.88;7311939;19;129015;-31
2022/11/23 02:28:12;;;;;;;35.50;3.95;;;;;;;21.75;60.94;98193.41;7309216;19;129333;-31
2022/11/23 02:30:38;;;;;;;24.67;2.80;;;;;;;21.88;61.07;98196.28;7313333;19;129765;-31
2022/11/23 02:33:05;;;;;;;24.83;2.90;;;;;;;21.96;60.15;98198.84;7314312;19;130130;-38
2022/11/23 02:35:30;;;;;;;61.28;5.70;;;;;;;22.01;60.84;98192.28;7312348;19;129527;-32
2022/11/23 02:37:57;;;;;;;26.33;2.92;;;;;;;22.03;60.69;98195.53;7310644;19;129818;-34
2022/11/23 02:40:27;;;;;;;32.80;3.55;;;;;;;22.03;59.91;98201.59;7312797;19;129313;-32
2022/11/23 02:42:53;;;;;;;30.77;3.72;;;;;;;21.86;60.61;98179.97;7311319;19;128998;-31
2022/11/23 02:45:42;;;;;;;45.60;4.55;;;;;;;21.88;60.46;98198.91;7312119;19;129059;-31
2022/11/23 02:48:08;;;;;;;17.15;2.35;;;;;;;21.81;60.66;98202.41;7312093;19;129067;-34
2022/11/23 02:50:33;;;;;;;20.52;2.28;;;;;;;21.77;60.77;98201.94;7313193;19;129292;-36
2022/11/23 02:52:58;;;;;;;17.80;2.45;;;;;;;21.69;61.11;98209.81;7313112;19;129214;-36
2022/11/23 02:55:24;;;;;;;43.73;4.40;;;;;;;21.56;61.80;98200.91;7312445;19;128955;-32
2022/11/23 02:57:49;;;;;;;23.77;2.90;;;;;;;21.59;62.04;98214.47;7315741;19;129874;-32
2022/11/23 03:00:15;;;;;;;35.87;4.27;;;;;;;21.53;61.57;98216.97;7320077;19;130675;-36
2022/11/23 03:02:40;;;;;;;26.73;3.13;;;;;;;21.46;62.29;98216.84;7318405;19;128890;-36
2022/11/23 03:05:06;;;;;;;44.25;4.15;;;;;;;21.29;62.32;98202.22;7319498;19;129133;-32
2022/11/23 03:07:32;;;;;;;22.40;2.83;;;;;;;21.34;62.84;98219.97;7319684;19;129692;-32
2022/11/23 03:09:57;;;;;;;26.42;3.15;;;;;;;21.28;62.57;98220.69;7319882;19;129173;-34
2022/11/23 03:12:23;;;;;;;26.73;3.00;;;;;;;21.25;62.92;98221.03;7319552;19;128755;-38
2022/11/23 03:14:48;;;;;;;29.33;2.95;;;;;;;21.18;62.79;98217.47;7319438;19;129157;-33
2022/11/23 03:17:14;;;;;;;33.38;3.70;;;;;;;21.12;63.52;98224.16;7319407;19;129103;-34
2022/11/23 03:19:39;;;;;;;28.13;3.50;;;;;;;21.11;63.31;98229.56;7319408;19;129372;-35
2022/11/23 03:22:04;;;;;;;29.75;3.53;;;;;;;21.03;63.20;98227.00;7317880;19;129064;-33
2022/11/23 03:24:30;;;;;;;29.23;3.17;;;;;;;21.01;63.48;98235.00;7319155;19;129468;-31
2022/11/23 03:26:55;;;;;;;26.70;3.03;;;;;;;20.98;63.67;98230.13;7318047;19;129602;-36
2022/11/23 03:29:25;;;;;;;22.53;2.87;;;;;;;21.01;64.08;98232.38;7318849;19;130957;-32
2022/11/23 03:31:50;;;;;;;25.95;3.03;;;;;;;20.91;63.40;98208.22;7318786;19;130025;-32
2022/11/23 03:34:15;;;;;;;31.08;3.92;;;;;;;21.11;63.43;98232.19;7317847;19;129873;-35
2022/11/23 03:36:41;;;;;;;23.30;2.92;;;;;;;21.22;62.97;98231.81;7318119;19;129375;-33
2022/11/23 03:39:06;;;;;;;23.65;2.63;;;;;;;21.44;62.89;98224.03;7319030;19;129239;-33
2022/11/23 03:41:31;;;;;;;12.77;2.22;;;;;;;21.56;61.63;98219.22;7317998;19;129154;-36
2022/11/23 03:43:57;;;;;;;50.35;4.80;;;;;;;21.82;60.98;98230.19;7318724;19;128985;-34
2022/11/23 03:46:22;;;;;;;22.60;2.50;;;;;;;22.07;60.73;98223.78;7318927;19;129065;-31
2022/11/23 03:48:47;;;;;;;22.00;2.80;;;;;;;22.26;59.96;98227.75;7316819;19;129192;-31
2022/11/23 03:51:13;;;;;;;14.60;2.22;;;;;;;22.44;59.51;98225.59;7316875;19;129513;-33
2022/11/23 03:53:38;;;;;;;32.40;3.60;;;;;;;22.54;59.04;98198.22;7317775;19;129312;-35
2022/11/23 03:56:04;;;;;;;30.33;3.05;;;;;;;22.76;57.86;98217.44;7317450;19;130454;-31
2022/11/23 03:58:29;;;;;;;41.95;4.30;;;;;;;22.93;57.69;98218.91;7318310;19;130303;-33
2022/11/23 04:00:54;;;;;;;48.35;4.63;;;;;;;23.09;57.23;98216.91;7317675;19;129372;-30
2022/11/23 04:03:20;;;;;;;22.42;2.70;;;;;;;23.12;57.25;98226.22;7318655;19;129524;-31
2022/11/23 04:05:45;;;;;;;13.82;2.28;;;;;;;23.19;56.69;98222.66;7318013;19;129065;-36
2022/11/23 04:08:10;;;;;;;33.60;3.60;;;;;;;23.19;56.41;98211.34;7315584;19;130179;-31
2022/11/23 04:10:36;;;;;;;22.88;2.95;;;;;;;23.32;56.98;98219.41;7315429;19;130319;-30
2022/11/23 04:13:01;;;;;;;26.90;3.13;;;;;;;23.32;56.42;98216.00;7317685;19;129795;-30
2022/11/23 04:15:26;;;;;;;14.17;2.30;;;;;;;23.38;56.31;98225.75;7317040;19;129268;-34
2022/11/23 04:17:53;;;;;;;29.77;3.33;;;;;;;23.31;56.68;98220.41;7318060;19;130269;-31
2022/11/23 04:20:18;;;;;;;30.25;3.42;;;;;;;23.24;56.44;98227.34;7317329;19;129225;-35
2022/11/23 04:22:44;;;;;;;29.92;3.38;;;;;;;23.15;57.03;98231.88;7314943;19;129044;-36
2022/11/23 04:25:09;;;;;;;41.50;4.50;;;;;;;23.08;57.08;98232.81;7316688;19;129064;-32
2022/11/23 04:27:35;;;;;;;21.67;2.88;;;;;;;22.97;57.83;98222.78;7316068;19;129127;-33
2022/11/23 04:30:00;;;;;;;23.13;2.93;;;;;;;22.89;57.40;98226.31;7316647;19;128908;-33
2022/11/23 04:32:26;;;;;;;31.85;3.72;;;;;;;22.75;57.94;98229.75;7315217;19;129585;-33
2022/11/23 04:34:51;;;;;;;6.83;1.70;;;;;;;22.64;58.38;98221.50;7315962;19;129538;-33
2022/11/23 04:37:16;;;;;;;39.00;4.15;;;;;;;22.57;58.84;98226.66;7315750;19;130319;-34
2022/11/23 04:39:42;;;;;;;26.00;2.97;;;;;;;22.47;58.62;98225.25;7317695;19;129230;-31
2022/11/23 04:42:10;;;;;;;21.92;2.40;;;;;;;22.41;59.46;98233.81;7315650;19;128807;-35
2022/11/23 04:44:35;;;;;;;29.77;3.50;;;;;;;22.27;59.97;98229.34;7316235;19;129077;-33
2022/11/23 04:47:01;;;;;;;33.63;3.72;;;;;;;22.18;60.13;98220.75;7315282;19;130554;-31
2022/11/23 04:49:26;;;;;;;21.73;2.60;;;;;;;22.12;60.61;98229.31;7316331;19;129159;-31
2022/11/23 04:51:52;;;;;;;23.77;3.20;;;;;;;21.93;60.11;98212.28;7315010;19;131092;-34
2022/11/23 04:54:17;;;;;;;26.70;3.25;;;;;;;21.92;60.47;98220.31;7315913;19;131059;-33
2022/11/23 04:56:42;;;;;;;31.15;3.85;;;;;;;21.85;61.16;98228.03;7316271;19;131189;-34
2022/11/23 04:59:08;;;;;;;27.25;3.30;;;;;;;21.78;61.16;98234.94;7316467;19;128922;-39
2022/11/23 05:01:33;;;;;;;41.00;4.60;;;;;;;21.63;61.41;98209.69;7315144;19;129002;-37
2022/11/23 05:03:58;;;;;;;34.05;3.78;;;;;;;21.69;61.61;98229.94;7315692;19;129022;-32
2022/11/23 05:06:24;;;;;;;12.00;2.53;;;;;;;21.48;62.20;98204.41;7314910;19;129177;-35
2022/11/23 05:08:49;;;;;;;23.45;2.97;;;;;;;21.54;62.50;98219.41;7314601;19;130205;-32
2022/11/23 05:11:15;;;;;;;25.67;3.10;;;;;;;21.47;62.28;98226.28;7315900;19;129476;-31
2022/11/23 05:13:40;;;;;;;14.07;2.47;;;;;;;21.39;62.73;98223.72;7316507;19;130082;-36
2022/11/23 05:16:06;;;;;;;23.03;2.80;;;;;;;21.36;62.84;98218.84;7315341;19;129669;-31
2022/11/23 05:18:31;;;;;;;35.08;3.95;;;;;;;21.33;63.09;98224.41;7316098;19;129024;-32
2022/11/23 05:20:57;;;;;;;30.85;3.28;;;;;;;21.29;63.41;98228.34;7312794;19;128908;-33
2022/11/23 05:23:22;;;;;;;29.60;3.25;;;;;;;21.23;63.54;98234.28;7315053;19;130703;-31
2022/11/23 05:25:47;;;;;;;31.57;3.60;;;;;;;21.23;63.46;98234.28;7315509;19;129803;-30
2022/11/23 05:28:18;;;;;;;27.27;3.40;;;;;;;21.19;63.42;98230.34;7315154;19;129125;-34
2022/11/23 05:30:43;;;;;;;34.63;3.85;;;;;;;21.05;63.74;98212.78;7315616;19;129712;-31
2022/11/23 05:33:09;;;;;;;13.45;2.40;;;;;;;21.15;63.26;98242.16;7314896;19;129136;-34
2022/11/23 05:35:34;;;;;;;39.58;4.45;;;;;;;21.17;63.40;98234.94;7314642;19;130233;-30
2022/11/23 05:38:00;;;;;;;31.95;3.75;;;;;;;21.18;63.65;98236.56;7315403;19;128856;-33
2022/11/23 05:40:26;;;;;;;39.93;4.20;;;;;;;21.17;64.04;98240.16;7314833;19;129162;-31
2022/11/23 05:42:56;;;;;;;10.60;2.20;;;;;;;21.10;63.33;98227.94;7313633;19;130288;-32
2022/11/23 05:45:21;;;;;;;31.23;3.42;;;;;;;21.26;63.13;98238.31;7314474;19;129663;-34
2022/11/23 05:47:57;;;;;;;24.58;3.13;;;;;;;21.25;62.98;98248.00;7313730;19;129425;-31
2022/11/23 05:50:25;;;;;;;29.20;3.55;;;;;;;21.31;63.55;98252.53;7316026;19;129510;-33
2022/11/23 05:52:50;;;;;;;45.58;4.68;;;;;;;21.31;62.78;98242.06;7311862;19;129153;-31
2022/11/23 05:55:16;;;;;;;34.33;3.90;;;;;;;21.35;63.16;98222.47;7314514;19;129171;-33
2022/11/23 05:57:41;;;;;;;28.48;3.33;;;;;;;21.46;62.89;98239.53;7315580;19;128841;-36
2022/11/23 06:00:09;;;;;;;27.08;3.63;;;;;;;21.52;62.03;98239.66;7315711;19;128943;-34
2022/11/23 06:02:35;;;;;;;32.63;3.63;;;;;;;21.58;61.83;98233.78;7310889;19;130380;-33
2022/11/23 06:05:00;;;;;;;48.10;4.72;;;;;;;21.66;62.29;98236.34;7309014;19;129740;-36
2022/11/23 06:07:25;;;;;;;51.50;5.20;;;;;;;21.73;61.96;98241.69;7310733;19;129209;-38
2022/11/23 06:09:51;;;;;;;31.15;3.42;;;;;;;21.79;61.66;98244.44;7312999;19;129507;-35
2022/11/23 06:12:16;;;;;;;21.23;2.63;;;;;;;21.84;60.95;98247.38;7310002;19;130127;-38
2022/11/23 06:14:41;;;;;;;24.13;2.90;;;;;;;21.78;61.40;98228.94;7313499;19;130385;-37
2022/11/23 06:17:07;;;;;;;20.80;3.10;;;;;;;21.98;60.96;98236.13;7314271;19;128866;-37
2022/11/23 06:19:33;;;;;;;33.20;3.70;;;;;;;21.95;60.51;98227.81;7313563;19;129661;-37
2022/11/23 06:21:58;;;;;;;21.67;2.77;;;;;;;22.07;60.83;98244.72;7313271;19;129530;-39
2022/11/23 06:24:24;;;;;;;29.75;3.72;;;;;;;22.18;60.49;98246.13;7313311;19;131065;-37
2022/11/23 06:26:52;;;;;;;52.60;5.10;;;;;;;22.22;60.06;98250.84;7313277;19;130365;-37
2022/11/23 06:29:19;;;;;;;34.08;4.07;;;;;;;22.24;59.75;98251.47;7308031;19;128992;-37
2022/11/23 06:31:45;;;;;;;26.38;3.45;;;;;;;22.12;59.59;98252.06;7311110;19;130883;-37
2022/11/23 06:34:10;;;;;;;33.53;3.92;;;;;;;22.22;60.24;98258.69;7307908;19;130299;-36
2022/11/23 06:36:35;;;;;;;26.07;3.23;;;;;;;22.07;60.50;98249.16;7306856;19;129233;-38
2022/11/23 06:39:01;;;;;;;22.30;2.97;;;;;;;22.17;60.11;98276.72;7313853;19;129672;-37
2022/11/23 06:41:26;;;;;;;37.20;3.88;;;;;;;22.17;60.19;98265.44;7313347;19;129017;-38
2022/11/23 06:43:52;;;;;;;25.15;3.30;;;;;;;22.15;59.94;98267.44;7309347;19;129355;-36
2022/11/23 06:46:17;;;;;;;31.07;3.50;;;;;;;22.03;60.07;98253.13;7311904;19;129133;-37
2022/11/23 06:48:44;;;;;;;26.77;3.15;;;;;;;22.11;59.93;98269.59;7311593;19;128966;-36
2022/11/23 06:51:09;;;;;;;26.52;3.38;;;;;;;22.12;60.20;98275.63;7313111;19;130766;-38
2022/11/23 06:53:35;;;;;;;27.47;3.13;;;;;;;22.04;60.63;98249.50;7313388;19;130357;-37
2022/11/23 06:56:01;;;;;;;37.33;4.28;;;;;;;22.12;60.01;98268.59;7311691;19;129267;-37
2022/11/23 06:58:26;;;;;;;9.70;2.30;;;;;;;22.14;59.90;98276.25;7312574;19;129234;-37
2022/11/23 07:00:52;;;;;;;28.97;3.23;;;;;;;22.12;60.41;98279.06;7312603;19;129069;-37
2022/11/23 07:03:22;;;;;;;42.60;4.43;;;;;;;22.12;60.66;98283.47;7312711;19;129327;-38
2022/11/23 07:05:48;;;;;;;24.83;2.90;;;;;;;22.11;60.73;98280.06;7313185;19;129218;-38
2022/11/23 07:08:13;;;;;;;51.28;5.32;;;;;;;22.13;59.99;98275.44;7307232;19;128871;-38
2022/11/23 07:10:39;;;;;;;32.30;3.38;;;;;;;22.14;60.77;98276.25;7308468;19;129471;-36
2022/11/23 07:13:05;;;;;;;45.75;4.90;;;;;;;22.11;60.68;98287.09;7306328;19;130967;-37
2022/11/23 07:15:32;;;;;;;47.30;4.97;;;;;;;22.00;60.63;98274.41;7310167;19;131890;-38
2022/11/23 07:17:57;;;;;;;20.57;2.93;;;;;;;22.09;60.99;98291.66;7313495;19;129031;-39
2022/11/23 07:20:23;;;;;;;20.42;3.30;;;;;;;22.03;61.17;98284.53;7313263;19;129007;-36
2022/11/23 07:22:58;;;;;;;52.85;5.40;;;;;;;22.01;60.54;98289.13;7309803;19;129303;-38
2022/11/23 07:25:24;;;;;;;33.38;4.10;;;;;;;21.93;60.60;98288.16;7310429;19;128952;-37
2022/11/23 07:27:54;;;;;;;25.05;3.10;;;;;;;21.87;61.37;98288.06;7311551;19;128933;-36
2022/11/23 07:30:20;;;;;;;35.40;4.22;;;;;;;21.85;61.29;98292.63;7309894;19;130246;-35
2022/11/23 07:32:45;;;;;;;24.95;3.15;;;;;;;21.72;61.52;98271.44;7310465;19;130619;-36
2022/11/23 07:35:11;;;;;;;49.47;5.60;;;;;;;21.72;61.73;98285.31;7308024;19;129652;-38
2022/11/23 07:37:37;;;;;;;28.73;3.63;;;;;;;21.72;61.80;98290.56;7312063;19;128987;-38
2022/11/23 07:40:03;;;;;;;11.37;2.57;;;;;;;21.56;61.60;98272.34;7312176;19;130229;-37
2022/11/23 07:42:28;;;;;;;28.17;3.67;;;;;;;21.66;61.99;98293.88;7310435;19;130432;-38
2022/11/23 07:44:53;;;;;;;43.30;5.05;;;;;;;21.62;62.12;98297.81;7315230;19;130004;-36
2022/11/23 07:47:19;;;;;;;31.00;3.78;;;;;;;21.64;62.10;98301.06;7318126;19;129724;-36
2022/11/23 07:49:44;;;;;;;13.02;2.60;;;;;;;21.63;61.74;98309.09;7319251;19;128910;-38
2022/11/23 07:52:09;;;;;;;22.17;2.67;;;;;;;21.60;62.25;98299.78;7315168;19;130368;-37
2022/11/23 07:54:35;;;;;;;27.25;3.50;;;;;;;21.60;61.79;98298.97;7316295;19;130837;-37
2022/11/23 07:57:00;;;;;;;25.33;2.95;;;;;;;21.60;62.25;98302.38;7317854;19;129244;-37
2022/11/23 07:59:25;;;;;;;29.30;3.43;;;;;;;21.57;62.12;98300.13;7318255;19;130045;-37
2022/11/23 08:01:51;;;;;;;24.90;3.03;;;;;;;21.56;62.77;98305.53;7317622;19;129102;-37
2022/11/23 08:04:16;;;;;;;26.98;3.42;;;;;;;21.57;62.68;98309.75;7318419;19;128940;-37
2022/11/23 08:06:41;;;;;;;26.48;3.45;;;;;;;21.45;62.32;98293.63;7319322;19;129333;-38
2022/11/23 08:09:07;;;;;;;137.30;11.45;;;;;;;21.51;62.71;98306.03;7313151;19;131002;-35
2022/11/23 08:11:32;;;;;;;127.97;11.07;;;;;;;21.44;62.20;98289.38;7312396;19;130314;-37
2022/11/23 08:13:57;;;;;;;85.93;7.93;;;;;;;21.46;62.90;98308.34;7315943;19;129171;-37
2022/11/23 08:16:23;;;;;;;16.63;2.97;;;;;;;21.47;62.43;98304.72;7316662;19;129183;-38
2022/11/23 08:18:49;;;;;;;24.50;3.20;;;;;;;21.42;62.58;98299.19;7316385;19;128970;-38
2022/11/23 08:21:15;;;;;;;23.33;3.05;;;;;;;21.38;62.92;98299.72;7318345;19;130359;-37
2022/11/23 08:23:40;;;;;;;28.48;3.50;;;;;;;21.32;62.53;98290.75;7317779;19;128942;-38
2022/11/23 08:26:06;;;;;;;25.37;3.27;;;;;;;21.40;62.55;98298.53;7317682;19;128913;-37
2022/11/23 08:28:31;;;;;;;38.57;4.30;;;;;;;21.30;63.20;98282.28;7316352;19;131037;-38
2022/11/23 08:30:57;;;;;;;23.58;3.13;;;;;;;21.38;63.14;98297.09;7317134;19;130706;-37
2022/11/23 08:33:22;;;;;;;24.35;2.85;;;;;;;21.24;62.89;98276.88;7317954;19;129584;-38
2022/11/23 08:35:47;;;;;;;26.02;3.20;;;;;;;21.40;63.37;98288.09;7316609;19;128877;-39
2022/11/23 08:38:13;;;;;;;26.00;3.57;;;;;;;21.41;62.78;98294.97;7318062;19;130132;-38
2022/11/23 08:40:39;;;;;;;30.40;3.60;;;;;;;21.44;62.72;98289.38;7316973;19;130434;-39
2022/11/23 08:43:04;;;;;;;27.05;3.42;;;;;;;21.44;62.54;98294.63;7317439;19;129726;-38
2022/11/23 08:45:30;;;;;;;27.40;3.57;;;;;;;21.46;62.32;98297.88;7316934;19;129994;-39
2022/11/23 08:48:02;;;;;;;22.98;3.08;;;;;;;21.49;62.88;98302.78;7317533;19;129136;-36
2022/11/23 08:50:29;;;;;;;25.15;3.42;;;;;;;21.42;62.26;98288.75;7316175;19;130338;-38
2022/11/23 08:52:58;;;;;;;26.73;3.33;;;;;;;21.53;62.65;98306.69;7312286;19;128934;-37
2022/11/23 08:55:25;;;;;;;27.83;3.92;;;;;;;21.52;62.69;98310.28;7316485;19;128793;-37
2022/11/23 08:57:53;;;;;;;;;;;;;;;21.50;62.85;98314.84;7317208;19;130090;-38
2022/11/23 09:00:19;;;;;;;44.53;4.60;;;;;;;21.51;62.49;98306.03;7316135;19;128919;-36
2022/11/23 09:02:44;;;;;;;65.23;6.53;;;;;;;21.52;62.52;98306.84;7310642;19;129968;-38
2022/11/23 09:05:10;;;;;;;29.33;3.35;;;;;;;21.47;62.36;98296.88;7314686;19;129562;-37
2022/11/23 09:07:35;;;;;;;19.50;2.70;;;;;;;21.44;62.45;98305.06;7314491;19;131328;-37
2022/11/23 09:10:01;;;;;;;22.70;3.15;;;;;;;21.43;62.83;98302.63;7316247;19;130349;-39
2022/11/23 09:12:26;;;;;;;28.33;3.33;;;;;;;21.45;62.36;98306.69;7314777;19;129348;-39
2022/11/23 09:14:52;;;;;;;50.28;5.22;;;;;;;21.49;62.34;98310.63;7315438;19;129002;-40
2022/11/23 09:17:17;;;;;;;31.83;3.65;;;;;;;21.49;62.68;98308.00;7316175;19;129501;-38
2022/11/23 09:19:42;;;;;;;15.73;2.60;;;;;;;21.50;62.87;98309.63;7314025;19;129235;-39
2022/11/23 09:22:08;;;;;;;19.17;2.72;;;;;;;21.44;62.46;98294.63;7314682;19;129299;-39
2022/11/23 09:24:33;;;;;;;22.20;2.83;;;;;;;21.57;62.86;98310.56;7315138;19;128954;-39
2022/11/23 09:26:59;;;;;;;27.23;3.37;;;;;;;21.52;62.46;98315.50;7315539;19;130451;-40
2022/11/23 09:29:24;;;;;;;25.85;2.90;;;;;;;21.53;62.51;98314.53;7313590;19;129524;-39
2022/11/23 09:31:50;;;;;;;20.23;2.70;;;;;;;21.55;62.20;98296.06;7314026;19;130791;-39
2022/11/23 09:34:15;;;;;;;24.70;3.28;;;;;;;21.58;61.94;98312.22;7316932;19;129760;-40
2022/11/23 09:36:40;;;;;;;22.30;2.75;;;;;;;21.59;62.44;98300.75;7316013;19;129005;-39
2022/11/23 09:39:07;;;;;;;18.50;2.93;;;;;;;21.62;62.45;98308.25;7315897;19;129721;-40
2022/11/23 09:41:43;;;;;;;27.40;3.30;;;;;;;21.61;62.38;98298.81;7311618;19;131835;-37
2022/11/23 09:44:22;;;;;;;24.13;3.08;;;;;;;21.57;62.46;98300.13;7315500;19;129453;-38
2022/11/23 09:47:07;;;;;;;20.08;2.72;;;;;;;21.45;62.64;98283.16;7315960;19;129410;-38
2022/11/23 09:49:44;;;;;;;19.80;2.80;;;;;;;21.45;62.23;98279.75;7314145;19;129737;-37
2022/11/23 09:52:17;;;;;;;31.95;3.58;;;;;;;21.49;62.24;98287.09;7311948;19;128878;-39
2022/11/23 09:54:45;;;;;;;12.48;2.38;;;;;;;21.53;62.28;98296.22;7315529;19;129846;-40
2022/11/23 09:57:18;;;;;;;11.73;2.15;;;;;;;21.52;62.46;98294.59;7312728;19;130440;-40
2022/11/23 09:59:52;;;;;;;19.67;2.90;;;;;;;21.56;62.02;98295.88;7315643;19;131153;-41
2022/11/23 10:02:23;;;;;;;25.50;3.13;;;;;;;21.54;62.56;98303.06;7313458;19;130939;-38
2022/11/23 10:04:54;;;;;;;47.30;5.05;;;;;;;21.54;62.67;98300.47;7314185;19;129383;-39
2022/11/23 10:07:19;;;;;;;25.88;3.08;;;;;;;21.57;62.35;98296.69;7313511;19;129596;-39
2022/11/23 10:10:29;;;;;;;8.70;2.17;;;;;;;21.54;61.95;98290.00;7313131;19;130439;-40
2022/11/23 10:13:03;;;;;;;;;;;;;;;21.55;62.18;98291.63;7313193;19;128913;-39
2022/11/23 10:15:50;;;;;;;23.35;3.10;;;;;;;21.59;61.99;98292.09;7312723;19;128879;-40
2022/11/23 10:18:27;;;;;;;19.42;2.75;;;;;;;21.59;61.95;98292.91;7314895;19;129101;-39
2022/11/23 10:21:02;;;;;;;20.08;2.83;;;;;;;21.59;62.17;98287.69;7313747;19;129147;-39
2022/11/23 10:24:11;;;;;;;25.33;3.13;;;;;;;21.61;62.19;98275.25;7314143;19;129156;-41
2022/11/23 10:26:41;;;;;;;36.05;4.22;;;;;;;21.58;62.13;98274.78;7312542;19;129445;-40
2022/11/23 10:29:21;;;;;;;31.38;3.78;;;;;;;21.54;62.43;98271.69;7307910;19;130243;-38
2022/11/23 10:31:48;;;;;;;29.52;3.35;;;;;;;21.41;62.92;98260.16;7310293;19;130263;-39
2022/11/23 10:34:18;;;;;;;25.95;3.10;;;;;;;21.39;62.86;98249.88;7314587;19;129204;-38
2022/11/23 10:36:43;;;;;;;25.42;3.38;;;;;;;21.46;62.74;98266.50;7314955;19;129199;-38
2022/11/23 10:39:30;;;;;;;22.35;2.70;;;;;;;21.44;62.56;98265.84;7314117;19;130209;-38
2022/11/23 10:42:00;;;;;;;28.92;3.55;;;;;;;21.36;63.06;98250.22;7307437;19;130410;-37
2022/11/23 10:44:36;;;;;;;41.53;4.30;;;;;;;21.37;62.55;98246.59;7313580;19;130189;-38
2022/11/23 10:47:02;;;;;;;25.58;3.17;;;;;;;21.47;62.55;98262.09;7312215;19;129566;-38
2022/11/23 10:49:32;;;;;;;8.77;2.05;;;;;;;21.47;62.56;98257.66;7309751;19;130242;-38
2022/11/23 10:52:24;;;;;;;32.10;3.90;;;;;;;21.43;62.45;98250.34;7312446;19;130367;-39
2022/11/23 10:54:54;;;;;;;25.05;3.42;;;;;;;21.52;62.90;98257.97;7312441;19;129204;-38
2022/11/23 10:57:21;;;;;;;26.77;3.47;;;;;;;21.50;62.52;98256.53;7312993;19;129526;-38
2022/11/23 10:59:59;;;;;;;29.20;3.80;;;;;;;21.56;62.86;98261.06;7309965;19;130232;-38
2022/11/23 11:02:25;;;;;;;26.92;3.25;;;;;;;21.58;62.47;98259.09;7308610;19;130477;-38
2022/11/23 11:05:33;;;;;;;31.88;3.65;;;;;;;21.57;62.80;98257.44;7312840;19;128730;-38
2022/11/23 11:08:02;;;;;;;31.95;3.70;;;;;;;21.57;62.67;98260.06;7311388;19;129471;-37
2022/11/23 11:10:42;;;;;;;47.40;5.20;;;;;;;21.54;62.23;98263.84;7307991;19;131225;-38
2022/11/23 11:13:41;;;;;;;32.53;3.38;;;;;;;21.54;62.72;98258.63;7312176;19;129137;-38
2022/11/23 11:16:32;;;;;;;23.33;2.90;;;;;;;21.48;62.72;98250.66;7312646;19;128858;-38
2022/11/23 11:19:18;;;;;;;24.92;3.17;;;;;;;21.36;62.99;98242.38;7315187;19;128925;-38
2022/11/23 11:21:44;;;;;;;28.05;3.42;;;;;;;21.45;62.94;98257.03;7317978;19;130515;-37